createdAt,value
2022-11-15T00:00:07.039Z,8.15
2022-11-15T00:01:07.015Z,8.18
2022-11-15T00:02:07.062Z,8.11
2022-11-15T00:03:07.008Z,8.10
2022-11-15T00:04:07.005Z,8.15
2022-11-15T00:05:07.000Z,8.05
2022-11-15T00:06:06.996Z,8.08
2022-11-15T00:07:07.053Z,7.98
2022-11-15T00:08:07.044Z,7.89
2022-11-15T00:09:06.987Z,8.02
2022-11-15T00:10:06.985Z,8.02
2022-11-15T00:11:06.979Z,8.07
2022-11-15T00:12:06.977Z,7.98
2022-11-15T00:13:06.975Z,8.04
2022-11-15T00:14:06.974Z,8.10
2022-11-15T00:15:06.969Z,7.95
2022-11-15T00:16:06.987Z,7.95
2022-11-15T00:17:06.964Z,7.98
2022-11-15T00:18:06.959Z,8.08
2022-11-15T00:19:06.960Z,8.10
2022-11-15T00:20:06.950Z,8.07
2022-11-15T00:21:06.947Z,8.04
2022-11-15T00:22:06.944Z,8.10
2022-11-15T00:23:06.943Z,8.11
2022-11-15T00:24:06.937Z,8.12
2022-11-15T00:25:06.933Z,8.18
2022-11-15T00:26:06.932Z,8.16
2022-11-15T00:27:08.217Z,8.23
2022-11-15T00:28:06.923Z,8.12
2022-11-15T00:29:06.920Z,8.11
2022-11-15T00:30:06.936Z,8.11
2022-11-15T00:31:06.913Z,8.16
2022-11-15T00:32:06.931Z,8.05
2022-11-15T00:33:06.911Z,7.95
2022-11-15T00:34:06.903Z,7.87
2022-11-15T00:35:06.901Z,7.87
2022-11-15T00:36:06.895Z,7.82
2022-11-15T00:37:06.895Z,7.75
2022-11-15T00:38:06.890Z,7.74
2022-11-15T00:39:06.886Z,7.71
2022-11-15T00:40:06.879Z,7.67
2022-11-15T00:41:09.599Z,7.71
2022-11-15T00:42:06.884Z,7.71
2022-11-15T00:43:06.875Z,7.75
2022-11-15T00:44:06.867Z,7.92
2022-11-15T00:45:06.864Z,7.97
2022-11-15T00:46:06.876Z,7.95
2022-11-15T00:47:06.857Z,7.89
2022-11-15T00:48:06.876Z,7.79
2022-11-15T00:49:06.850Z,7.72
2022-11-15T00:50:06.849Z,7.74
2022-11-15T00:51:06.845Z,7.77
2022-11-15T00:52:06.845Z,7.80
2022-11-15T00:53:06.836Z,7.72
2022-11-15T00:54:06.837Z,7.75
2022-11-15T00:55:06.829Z,7.79
2022-11-15T00:56:06.826Z,7.89
2022-11-15T00:57:06.828Z,7.83
2022-11-15T00:58:06.820Z,7.85
2022-11-15T00:59:06.814Z,7.74
2022-11-15T01:00:06.814Z,7.80
2022-11-15T01:01:06.839Z,7.72
2022-11-15T01:02:06.807Z,7.71
2022-11-15T01:03:06.800Z,7.72
2022-11-15T01:04:06.817Z,7.53
2022-11-15T01:05:06.799Z,7.61
2022-11-15T01:06:06.788Z,7.75
2022-11-15T01:07:06.928Z,7.82
2022-11-15T01:08:06.783Z,7.83
2022-11-15T01:09:06.785Z,7.75
2022-11-15T01:10:06.778Z,7.72
2022-11-15T01:11:06.778Z,7.71
2022-11-15T01:12:06.772Z,7.71
2022-11-15T01:13:06.773Z,7.69
2022-11-15T01:14:06.769Z,7.72
2022-11-15T01:15:06.759Z,7.71
2022-11-15T01:16:06.753Z,7.72
2022-11-15T01:17:06.755Z,7.68
2022-11-15T01:18:06.752Z,7.52
2022-11-15T01:19:06.743Z,7.61
2022-11-15T01:20:06.759Z,7.74
2022-11-15T01:21:06.739Z,7.58
2022-11-15T01:22:06.731Z,7.53
2022-11-15T01:23:07.057Z,7.53
2022-11-15T01:24:06.724Z,7.63
2022-11-15T01:25:06.727Z,7.57
2022-11-15T01:26:06.719Z,7.53
2022-11-15T01:27:06.722Z,7.53
2022-11-15T01:28:06.711Z,7.55
2022-11-15T01:29:06.710Z,7.53
2022-11-15T01:30:06.701Z,7.49
2022-11-15T01:31:06.703Z,7.48
2022-11-15T01:32:06.698Z,7.46
2022-11-15T01:33:06.696Z,7.43
2022-11-15T01:34:06.693Z,7.45
2022-11-15T01:35:06.691Z,7.46
2022-11-15T01:36:06.708Z,7.50
2022-11-15T01:37:06.678Z,7.49
2022-11-15T01:38:06.677Z,7.46
2022-11-15T01:39:06.678Z,7.50
2022-11-15T01:40:06.662Z,7.50
2022-11-15T01:41:06.671Z,7.52
2022-11-15T01:42:06.661Z,7.75
2022-11-15T01:43:06.660Z,7.72
2022-11-15T01:44:06.652Z,7.68
2022-11-15T01:45:06.652Z,7.61
2022-11-15T01:46:06.649Z,7.50
2022-11-15T01:47:06.644Z,7.42
2022-11-15T01:48:06.636Z,7.34
2022-11-15T01:49:06.641Z,7.31
2022-11-15T01:50:06.628Z,7.40
2022-11-15T01:51:06.628Z,7.35
2022-11-15T01:52:06.642Z,7.28
2022-11-15T01:53:06.616Z,7.30
2022-11-15T01:54:06.618Z,7.16
2022-11-15T01:55:06.614Z,7.16
2022-11-15T01:56:06.607Z,7.13
2022-11-15T01:57:06.604Z,7.17
2022-11-15T01:58:06.599Z,7.24
2022-11-15T01:59:06.596Z,7.23
2022-11-15T02:00:06.591Z,7.37
2022-11-15T02:01:06.665Z,7.25
2022-11-15T02:02:06.586Z,7.23
2022-11-15T02:03:06.586Z,7.27
2022-11-15T02:04:06.577Z,7.31
2022-11-15T02:05:06.571Z,7.31
2022-11-15T02:06:06.573Z,7.13
2022-11-15T02:07:06.637Z,7.32
2022-11-15T02:08:06.583Z,7.31
2022-11-15T02:09:06.564Z,7.32
2022-11-15T02:10:06.557Z,7.23
2022-11-15T02:11:06.553Z,7.21
2022-11-15T02:12:06.546Z,7.27
2022-11-15T02:13:06.545Z,7.28
2022-11-15T02:14:06.541Z,7.15
2022-11-15T02:15:06.538Z,7.34
2022-11-15T02:16:06.534Z,7.21
2022-11-15T02:17:06.530Z,7.31
2022-11-15T02:18:06.521Z,7.12
2022-11-15T02:19:06.521Z,7.37
2022-11-15T02:20:06.527Z,7.39
2022-11-15T02:21:06.513Z,7.37
2022-11-15T02:22:06.512Z,7.46
2022-11-15T02:23:06.511Z,7.39
2022-11-15T02:24:06.523Z,7.39
2022-11-15T02:25:06.498Z,7.31
2022-11-15T02:26:06.490Z,7.15
2022-11-15T02:27:06.491Z,7.21
2022-11-15T02:28:06.485Z,7.32
2022-11-15T02:29:06.484Z,7.23
2022-11-15T02:30:06.478Z,7.34
2022-11-15T02:31:06.475Z,7.34
2022-11-15T02:32:06.468Z,7.27
2022-11-15T02:33:06.467Z,7.12
2022-11-15T02:34:06.460Z,7.10
2022-11-15T02:35:06.464Z,7.31
2022-11-15T02:36:06.457Z,7.28
2022-11-15T02:37:06.454Z,7.34
2022-11-15T02:38:06.446Z,7.40
2022-11-15T02:39:06.442Z,7.35
2022-11-15T02:40:06.463Z,7.43
2022-11-15T02:41:06.439Z,7.48
2022-11-15T02:42:06.430Z,7.53
2022-11-15T02:43:08.424Z,7.67
2022-11-15T02:44:06.425Z,7.63
2022-11-15T02:45:06.417Z,7.68
2022-11-15T02:46:06.415Z,7.57
2022-11-15T02:47:06.412Z,7.61
2022-11-15T02:48:06.408Z,7.53
2022-11-15T02:49:06.407Z,7.49
2022-11-15T02:50:06.404Z,7.45
2022-11-15T02:51:06.398Z,7.48
2022-11-15T02:52:06.391Z,7.46
2022-11-15T02:53:06.388Z,7.50
2022-11-15T02:54:06.386Z,7.45
2022-11-15T02:55:06.385Z,7.49
2022-11-15T02:56:06.399Z,7.39
2022-11-15T02:57:06.378Z,7.13
2022-11-15T02:58:06.374Z,7.03
2022-11-15T02:59:06.370Z,7.13
2022-11-15T03:00:06.361Z,7.10
2022-11-15T03:01:06.437Z,6.97
2022-11-15T03:02:06.354Z,6.98
2022-11-15T03:03:06.354Z,7.13
2022-11-15T03:04:06.346Z,6.99
2022-11-15T03:05:06.343Z,7.06
2022-11-15T03:06:06.342Z,6.99
2022-11-15T03:07:06.399Z,7.06
2022-11-15T03:08:06.340Z,6.98
2022-11-15T03:09:06.332Z,7.06
2022-11-15T03:10:06.329Z,6.98
2022-11-15T03:11:06.321Z,6.99
2022-11-15T03:12:06.340Z,7.06
2022-11-15T03:13:06.313Z,7.02
2022-11-15T03:14:06.308Z,7.03
2022-11-15T03:15:06.310Z,6.99
2022-11-15T03:16:06.301Z,6.99
2022-11-15T03:17:06.298Z,6.99
2022-11-15T03:18:06.295Z,7.09
2022-11-15T03:19:06.291Z,7.21
2022-11-15T03:20:06.286Z,7.13
2022-11-15T03:21:06.282Z,7.09
2022-11-15T03:22:06.272Z,7.13
2022-11-15T03:23:06.275Z,7.20
2022-11-15T03:24:06.271Z,7.24
2022-11-15T03:25:06.263Z,7.24
2022-11-15T03:26:06.262Z,7.23
2022-11-15T03:27:06.259Z,7.23
2022-11-15T03:28:06.272Z,7.15
2022-11-15T03:29:06.249Z,7.13
2022-11-15T03:30:06.249Z,7.05
2022-11-15T03:31:06.240Z,7.12
2022-11-15T03:32:06.233Z,7.20
2022-11-15T03:33:06.234Z,7.21
2022-11-15T03:34:06.231Z,7.03
2022-11-15T03:35:06.227Z,7.13
2022-11-15T03:36:06.223Z,7.09
2022-11-15T03:37:06.218Z,6.97
2022-11-15T03:38:06.329Z,7.13
2022-11-15T03:39:06.308Z,7.12
2022-11-15T03:40:06.205Z,7.20
2022-11-15T03:41:06.205Z,7.25
2022-11-15T03:42:06.197Z,7.24
2022-11-15T03:43:06.194Z,7.25
2022-11-15T03:44:06.214Z,7.21
2022-11-15T03:45:06.186Z,7.25
2022-11-15T03:46:06.176Z,7.34
2022-11-15T03:47:06.178Z,7.32
2022-11-15T03:48:06.181Z,7.24
2022-11-15T03:49:06.172Z,7.35
2022-11-15T03:50:06.169Z,7.27
2022-11-15T03:51:06.175Z,7.31
2022-11-15T03:52:06.166Z,7.25
2022-11-15T03:53:06.358Z,7.10
2022-11-15T03:54:06.149Z,7.15
2022-11-15T03:55:06.147Z,7.15
2022-11-15T03:56:06.139Z,7.15
2022-11-15T03:57:06.140Z,6.97
2022-11-15T03:58:06.134Z,7.15
2022-11-15T03:59:06.130Z,7.17
2022-11-15T04:00:06.153Z,7.10
2022-11-15T04:01:06.210Z,7.12
2022-11-15T04:02:06.121Z,7.21
2022-11-15T04:03:06.121Z,7.20
2022-11-15T04:04:06.109Z,7.24
2022-11-15T04:05:06.107Z,7.30
2022-11-15T04:06:06.103Z,7.24
2022-11-15T04:07:06.153Z,7.28
2022-11-15T04:08:06.096Z,7.40
2022-11-15T04:09:06.092Z,7.34
2022-11-15T04:10:06.091Z,7.21
2022-11-15T04:11:06.086Z,7.23
2022-11-15T04:12:06.076Z,7.21
2022-11-15T04:13:06.076Z,7.21
2022-11-15T04:14:06.069Z,7.12
2022-11-15T04:15:06.071Z,7.25
2022-11-15T04:16:06.090Z,7.24
2022-11-15T04:17:06.061Z,7.15
2022-11-15T04:18:06.058Z,7.16
2022-11-15T04:19:06.051Z,7.15
2022-11-15T04:20:06.047Z,7.09
2022-11-15T04:21:06.043Z,7.13
2022-11-15T04:22:06.042Z,7.10
2022-11-15T04:23:06.037Z,7.07
2022-11-15T04:24:06.062Z,7.05
2022-11-15T04:25:06.039Z,7.12
2022-11-15T04:26:06.023Z,7.09
2022-11-15T04:27:06.032Z,7.15
2022-11-15T04:28:06.019Z,7.12
2022-11-15T04:29:06.014Z,7.13
2022-11-15T04:30:06.010Z,7.09
2022-11-15T04:31:06.008Z,7.02
2022-11-15T04:32:06.027Z,6.99
2022-11-15T04:33:05.997Z,6.98
2022-11-15T04:34:05.993Z,7.16
2022-11-15T04:35:05.991Z,7.23
2022-11-15T04:36:05.981Z,7.24
2022-11-15T04:37:05.983Z,7.35
2022-11-15T04:38:05.980Z,7.37
2022-11-15T04:39:05.973Z,7.23
2022-11-15T04:40:05.968Z,7.16
2022-11-15T04:41:05.966Z,7.17
2022-11-15T04:42:05.971Z,7.13
2022-11-15T04:43:05.959Z,7.31
2022-11-15T04:44:05.951Z,7.28
2022-11-15T04:45:05.950Z,7.39
2022-11-15T04:46:05.942Z,7.39
2022-11-15T04:47:05.942Z,7.23
2022-11-15T04:48:05.955Z,7.43
2022-11-15T04:49:05.933Z,7.28
2022-11-15T04:50:05.929Z,7.30
2022-11-15T04:51:05.924Z,7.32
2022-11-15T04:52:05.925Z,7.23
2022-11-15T04:53:05.916Z,7.28
2022-11-15T04:54:05.912Z,7.34
2022-11-15T04:55:08.250Z,7.31
2022-11-15T04:56:05.910Z,7.32
2022-11-15T04:57:05.903Z,7.23
2022-11-15T04:58:05.897Z,7.31
2022-11-15T04:59:05.893Z,7.35
2022-11-15T05:00:05.897Z,7.37
2022-11-15T05:01:05.978Z,7.45
2022-11-15T05:02:05.877Z,7.48
2022-11-15T05:03:05.876Z,7.50
2022-11-15T05:04:05.903Z,7.52
2022-11-15T05:05:05.868Z,7.50
2022-11-15T05:06:05.864Z,7.49
2022-11-15T05:07:05.926Z,7.46
2022-11-15T05:08:05.854Z,7.50
2022-11-15T05:09:05.851Z,7.49
2022-11-15T05:10:05.846Z,7.61
2022-11-15T05:11:05.844Z,7.61
2022-11-15T05:12:05.845Z,7.58
2022-11-15T05:13:05.834Z,7.61
2022-11-15T05:14:05.835Z,7.60
2022-11-15T05:15:05.833Z,7.57
2022-11-15T05:16:05.834Z,7.63
2022-11-15T05:17:05.825Z,7.55
2022-11-15T05:18:05.816Z,7.55
2022-11-15T05:19:05.810Z,7.61
2022-11-15T05:20:05.828Z,7.57
2022-11-15T05:21:05.804Z,7.60
2022-11-15T05:22:05.801Z,7.57
2022-11-15T05:23:05.807Z,7.60
2022-11-15T05:24:05.794Z,7.67
2022-11-15T05:25:05.796Z,7.60
2022-11-15T05:26:09.131Z,7.57
2022-11-15T05:27:05.782Z,7.60
2022-11-15T05:28:05.778Z,7.55
2022-11-15T05:29:05.774Z,7.64
2022-11-15T05:30:05.774Z,7.49
2022-11-15T05:31:05.767Z,7.55
2022-11-15T05:32:05.761Z,7.48
2022-11-15T05:33:05.767Z,7.53
2022-11-15T05:34:05.758Z,7.53
2022-11-15T05:35:05.754Z,7.52
2022-11-15T05:36:05.768Z,7.61
2022-11-15T05:37:05.744Z,7.60
2022-11-15T05:38:05.741Z,7.58
2022-11-15T05:39:05.735Z,7.63
2022-11-15T05:40:05.741Z,7.71
2022-11-15T05:41:05.729Z,7.58
2022-11-15T05:42:05.723Z,7.46
2022-11-15T05:43:05.718Z,7.55
2022-11-15T05:44:05.714Z,7.61
2022-11-15T05:45:05.717Z,7.60
2022-11-15T05:46:05.708Z,7.57
2022-11-15T05:47:05.708Z,7.57
2022-11-15T05:48:05.702Z,7.52
2022-11-15T05:49:05.702Z,7.46
2022-11-15T05:50:05.696Z,7.57
2022-11-15T05:51:05.689Z,7.52
2022-11-15T05:52:05.710Z,7.49
2022-11-15T05:53:05.681Z,7.46
2022-11-15T05:54:05.683Z,7.50
2022-11-15T05:55:05.680Z,7.50
2022-11-15T05:56:05.673Z,7.49
2022-11-15T05:57:05.667Z,7.52
2022-11-15T05:58:05.664Z,7.39
2022-11-15T05:59:05.656Z,7.40
2022-11-15T06:00:05.659Z,7.37
2022-11-15T06:01:05.652Z,7.37
2022-11-15T06:02:05.699Z,7.40
2022-11-15T06:03:05.647Z,7.39
2022-11-15T06:04:05.641Z,7.43
2022-11-15T06:05:05.639Z,7.39
2022-11-15T06:06:05.633Z,7.40
2022-11-15T06:07:05.690Z,7.50
2022-11-15T06:08:05.728Z,7.39
2022-11-15T06:09:05.624Z,7.42
2022-11-15T06:10:05.622Z,7.37
2022-11-15T06:11:05.621Z,7.42
2022-11-15T06:12:05.613Z,7.35
2022-11-15T06:13:05.606Z,7.39
2022-11-15T06:14:05.608Z,7.28
2022-11-15T06:15:05.601Z,7.31
2022-11-15T06:16:05.603Z,7.31
2022-11-15T06:17:11.052Z,7.13
2022-11-15T06:18:05.590Z,6.99
2022-11-15T06:19:05.588Z,7.03
2022-11-15T06:20:05.586Z,6.94
2022-11-15T06:21:05.579Z,7.03
2022-11-15T06:22:05.578Z,7.09
2022-11-15T06:23:05.572Z,7.06
2022-11-15T06:24:05.597Z,6.98
2022-11-15T06:25:05.906Z,6.85
2022-11-15T06:26:05.613Z,7.06
2022-11-15T06:27:05.557Z,7.10
2022-11-15T06:28:05.551Z,7.06
2022-11-15T06:29:05.548Z,6.89
2022-11-15T06:30:05.542Z,6.98
2022-11-15T06:31:05.540Z,7.16
2022-11-15T06:32:05.541Z,7.17
2022-11-15T06:33:05.540Z,7.23
2022-11-15T06:34:05.537Z,7.10
2022-11-15T06:35:05.529Z,7.13
2022-11-15T06:36:05.523Z,7.17
2022-11-15T06:37:05.520Z,7.25
2022-11-15T06:38:05.514Z,7.32
2022-11-15T06:39:05.513Z,7.25
2022-11-15T06:40:05.539Z,7.32
2022-11-15T06:41:05.506Z,7.35
2022-11-15T06:42:05.498Z,7.32
2022-11-15T06:43:05.497Z,7.40
2022-11-15T06:44:05.494Z,7.27
2022-11-15T06:45:05.487Z,7.31
2022-11-15T06:46:05.483Z,7.45
2022-11-15T06:47:05.482Z,7.40
2022-11-15T06:48:05.475Z,7.43
2022-11-15T06:49:09.560Z,7.43
2022-11-15T06:50:05.470Z,7.46
2022-11-15T06:51:05.464Z,7.32
2022-11-15T06:52:05.463Z,7.49
2022-11-15T06:53:05.457Z,7.39
2022-11-15T06:54:05.454Z,7.48
2022-11-15T06:55:05.446Z,7.55
2022-11-15T06:56:05.469Z,7.61
2022-11-15T06:57:05.440Z,7.67
2022-11-15T06:58:05.439Z,7.71
2022-11-15T06:59:05.433Z,7.55
2022-11-15T07:00:05.467Z,7.55
2022-11-15T07:01:05.569Z,7.53
2022-11-15T07:02:05.421Z,7.63
2022-11-15T07:03:05.421Z,7.49
2022-11-15T07:04:05.418Z,7.48
2022-11-15T07:05:05.407Z,7.50
2022-11-15T07:06:07.379Z,7.63
2022-11-15T07:07:05.461Z,7.69
2022-11-15T07:08:05.405Z,7.79
2022-11-15T07:09:05.393Z,7.68
2022-11-15T07:10:05.409Z,7.61
2022-11-15T07:11:05.390Z,7.69
2022-11-15T07:12:07.896Z,7.71
2022-11-15T07:13:05.379Z,7.58
2022-11-15T07:14:05.382Z,7.71
2022-11-15T07:15:05.374Z,7.75
2022-11-15T07:16:05.370Z,7.85
2022-11-15T07:17:05.365Z,7.90
2022-11-15T07:18:05.362Z,7.95
2022-11-15T07:19:05.360Z,8.04
2022-11-15T07:20:05.357Z,8.00
2022-11-15T07:21:05.352Z,8.08
2022-11-15T07:22:05.346Z,8.10
2022-11-15T07:23:05.346Z,8.26
2022-11-15T07:24:05.343Z,8.26
2022-11-15T07:25:05.331Z,8.26
2022-11-15T07:26:05.333Z,8.29
2022-11-15T07:27:05.328Z,8.40
2022-11-15T07:28:05.345Z,8.44
2022-11-15T07:29:05.322Z,8.58
2022-11-15T07:30:05.320Z,8.58
2022-11-15T07:31:05.316Z,8.58
2022-11-15T07:32:05.311Z,8.73
2022-11-15T07:33:05.302Z,8.80
2022-11-15T07:34:05.306Z,8.71
2022-11-15T07:35:05.298Z,8.79
2022-11-15T07:36:05.449Z,8.73
2022-11-15T07:37:05.297Z,8.80
2022-11-15T07:38:05.289Z,9.05
2022-11-15T07:39:05.283Z,9.08
2022-11-15T07:40:05.365Z,9.20
2022-11-15T07:41:05.278Z,9.20
2022-11-15T07:42:05.280Z,9.31
2022-11-15T07:43:05.272Z,9.26
2022-11-15T07:44:05.320Z,9.31
2022-11-15T07:45:05.261Z,9.33
2022-11-15T07:46:05.265Z,9.32
2022-11-15T07:47:05.259Z,9.39
2022-11-15T07:48:05.252Z,9.39
2022-11-15T07:49:05.337Z,9.50
2022-11-15T07:50:05.247Z,9.64
2022-11-15T07:51:08.786Z,9.66
2022-11-15T07:52:05.241Z,9.83
2022-11-15T07:53:05.240Z,9.94
2022-11-15T07:54:05.259Z,10.11
2022-11-15T07:55:05.231Z,10.33
2022-11-15T07:56:05.227Z,10.52
2022-11-15T07:57:07.494Z,10.81
2022-11-15T07:58:05.227Z,10.82
2022-11-15T07:59:05.214Z,10.89
2022-11-15T08:00:05.264Z,10.92
2022-11-15T08:01:05.461Z,11.07
2022-11-15T08:02:05.356Z,11.00
2022-11-15T08:03:05.208Z,11.17
2022-11-15T08:04:05.209Z,11.28
2022-11-15T08:05:05.199Z,11.37
2022-11-15T08:06:05.259Z,11.32
2022-11-15T08:07:05.235Z,11.39
2022-11-15T08:08:05.192Z,11.29
2022-11-15T08:09:05.192Z,11.35
2022-11-15T08:10:05.255Z,11.46
2022-11-15T08:11:05.197Z,11.60
2022-11-15T08:12:05.181Z,11.70
2022-11-15T08:13:05.220Z,11.76
2022-11-15T08:14:05.177Z,11.90
2022-11-15T08:15:05.173Z,11.86
2022-11-15T08:16:05.191Z,11.76
2022-11-15T08:17:05.164Z,11.88
2022-11-15T08:18:05.167Z,11.75
2022-11-15T08:19:05.176Z,11.70
2022-11-15T08:20:05.483Z,11.54
2022-11-15T08:21:05.155Z,11.42
2022-11-15T08:22:05.154Z,11.51
2022-11-15T08:23:05.153Z,11.43
2022-11-15T08:24:05.154Z,11.67
2022-11-15T08:25:05.449Z,11.88
2022-11-15T08:26:05.214Z,12.04
2022-11-15T08:27:05.185Z,12.05
2022-11-15T08:28:05.139Z,12.17
2022-11-15T08:29:05.136Z,12.24
2022-11-15T08:30:05.444Z,12.14
2022-11-15T08:31:05.176Z,12.17
2022-11-15T08:32:05.151Z,12.21
2022-11-15T08:33:05.229Z,12.21
2022-11-15T08:34:05.124Z,12.17
2022-11-15T08:35:05.122Z,12.21
2022-11-15T08:36:05.124Z,12.31
2022-11-15T08:37:05.118Z,12.32
2022-11-15T08:38:05.115Z,12.49
2022-11-15T08:39:05.121Z,12.56
2022-11-15T08:40:05.109Z,12.59
2022-11-15T08:41:05.108Z,12.45
2022-11-15T08:42:05.104Z,12.57
2022-11-15T08:43:05.110Z,12.75
2022-11-15T08:44:05.108Z,12.89
2022-11-15T08:45:05.103Z,13.03
2022-11-15T08:46:05.102Z,13.07
2022-11-15T08:47:05.094Z,12.87
2022-11-15T08:48:05.117Z,13.00
2022-11-15T08:49:05.091Z,13.05
2022-11-15T08:50:05.099Z,12.93
2022-11-15T08:51:05.091Z,13.04
2022-11-15T08:52:05.088Z,12.86
2022-11-15T08:53:05.082Z,12.83
2022-11-15T08:54:05.084Z,13.03
2022-11-15T08:55:05.085Z,13.17
2022-11-15T08:56:05.079Z,12.90
2022-11-15T08:57:05.078Z,13.01
2022-11-15T08:58:05.074Z,13.12
2022-11-15T08:59:05.075Z,13.19
2022-11-15T09:00:05.071Z,13.39
2022-11-15T09:01:05.348Z,13.66
2022-11-15T09:02:05.191Z,13.84
2022-11-15T09:03:05.119Z,14.15
2022-11-15T09:04:05.119Z,14.20
2022-11-15T09:05:05.267Z,14.46
2022-11-15T09:06:05.063Z,14.69
2022-11-15T09:07:05.124Z,15.02
2022-11-15T09:08:19.175Z,15.19
2022-11-15T09:09:05.060Z,15.32
2022-11-15T09:10:05.168Z,15.41
2022-11-15T09:11:05.060Z,15.35
2022-11-15T09:12:05.054Z,15.67
2022-11-15T09:13:05.058Z,15.84
2022-11-15T09:14:05.064Z,16.14
2022-11-15T09:15:05.116Z,16.57
2022-11-15T09:16:05.054Z,16.85
2022-11-15T09:17:05.113Z,17.12
2022-11-15T09:18:05.060Z,17.30
2022-11-15T09:19:10.492Z,17.43
2022-11-15T09:20:05.088Z,17.16
2022-11-15T09:21:05.096Z,17.33
2022-11-15T09:22:05.130Z,17.28
2022-11-15T09:23:05.050Z,17.46
2022-11-15T09:24:05.112Z,17.82
2022-11-15T09:25:08.515Z,17.36
2022-11-15T09:26:05.048Z,17.11
2022-11-15T09:27:05.052Z,17.56
2022-11-15T09:28:05.406Z,17.96
2022-11-15T09:29:05.147Z,18.26
2022-11-15T09:30:05.378Z,18.60
2022-11-15T09:31:05.057Z,18.99
2022-11-15T09:32:05.101Z,19.58
2022-11-15T09:33:05.047Z,19.99
2022-11-15T09:34:05.045Z,19.80
2022-11-15T09:35:05.378Z,20.02
2022-11-15T09:36:05.089Z,20.24
2022-11-15T09:37:05.350Z,20.29
2022-11-15T09:38:05.048Z,20.64
2022-11-15T09:39:05.383Z,21.07
2022-11-15T09:40:05.045Z,21.27
2022-11-15T09:41:05.115Z,21.40
2022-11-15T09:42:05.044Z,21.01
2022-11-15T09:43:05.761Z,20.57
2022-11-15T09:44:05.060Z,20.14
2022-11-15T09:45:05.056Z,20.06
2022-11-15T09:46:05.410Z,20.17
2022-11-15T09:47:05.046Z,20.58
2022-11-15T09:48:05.046Z,21.06
2022-11-15T09:49:05.370Z,21.29
2022-11-15T09:50:05.109Z,21.50
2022-11-15T09:51:05.373Z,21.86
2022-11-15T09:52:05.265Z,22.17
2022-11-15T09:53:05.048Z,22.22
2022-11-15T09:55:05.373Z,22.33
2022-11-15T09:56:05.118Z,22.42
2022-11-15T09:57:05.043Z,22.35
2022-11-15T09:58:05.042Z,22.31
2022-11-15T09:59:05.046Z,22.36
2022-11-15T10:00:24.170Z,22.40
2022-11-15T10:01:05.416Z,22.20
2022-11-15T10:02:05.142Z,21.94
2022-11-15T10:03:05.041Z,21.80
2022-11-15T10:04:10.535Z,21.54
2022-11-15T10:05:05.201Z,21.35
2022-11-15T10:06:05.368Z,21.25
2022-11-15T10:07:05.081Z,21.14
2022-11-15T10:08:05.396Z,20.97
2022-11-15T10:09:05.041Z,20.94
2022-11-15T10:10:05.040Z,20.73
2022-11-15T10:12:05.034Z,20.43
2022-11-15T10:13:05.373Z,20.32
2022-11-15T10:14:05.384Z,20.08
2022-11-15T10:15:05.483Z,19.84
2022-11-15T10:16:05.100Z,19.56
2022-11-15T10:17:05.361Z,19.46
2022-11-15T10:18:05.364Z,19.25
2022-11-15T10:19:05.374Z,19.21
2022-11-15T10:20:06.215Z,19.11
2022-11-15T10:21:05.367Z,18.95
2022-11-15T10:22:05.342Z,18.91
2022-11-15T10:23:05.065Z,18.78
2022-11-15T10:24:05.081Z,18.60
2022-11-15T10:25:05.038Z,18.65
2022-11-15T10:26:06.964Z,18.52
2022-11-15T10:27:05.367Z,18.51
2022-11-15T10:28:05.359Z,18.54
2022-11-15T10:29:05.035Z,18.63
2022-11-15T10:30:05.138Z,18.60
2022-11-15T10:31:05.400Z,18.65
2022-11-15T10:32:05.357Z,18.65
2022-11-15T10:33:05.044Z,18.51
2022-11-15T10:34:05.367Z,18.50
2022-11-15T10:35:05.034Z,18.55
2022-11-15T10:36:05.038Z,18.60
2022-11-15T10:37:05.109Z,18.51
2022-11-15T10:38:05.035Z,18.58
2022-11-15T10:39:05.106Z,18.62
2022-11-15T10:40:05.060Z,18.69
2022-11-15T10:41:05.088Z,18.73
2022-11-15T10:42:10.153Z,18.67
2022-11-15T10:43:05.363Z,18.70
2022-11-15T10:44:05.358Z,18.88
2022-11-15T10:45:05.140Z,18.84
2022-11-15T10:46:24.573Z,18.87
2022-11-15T10:47:05.037Z,18.87
2022-11-15T10:48:05.035Z,18.75
2022-11-15T10:49:05.358Z,18.91
2022-11-15T10:50:05.365Z,18.88
2022-11-15T10:51:05.112Z,18.90
2022-11-15T10:52:05.032Z,18.99
2022-11-15T10:53:05.039Z,19.00
2022-11-15T10:54:10.428Z,19.10
2022-11-15T10:55:05.033Z,18.95
2022-11-15T10:56:05.052Z,18.73
2022-11-15T10:57:05.137Z,18.41
2022-11-15T10:58:05.097Z,18.45
2022-11-15T10:59:05.033Z,18.27
2022-11-15T11:00:05.033Z,18.21
2022-11-15T11:01:05.154Z,18.42
2022-11-15T11:02:05.036Z,18.52
2022-11-15T11:03:05.360Z,18.70
2022-11-15T11:04:05.029Z,18.81
2022-11-15T11:05:05.119Z,18.62
2022-11-15T11:06:05.029Z,18.45
2022-11-15T11:07:05.084Z,18.08
2022-11-15T11:08:05.034Z,17.62
2022-11-15T11:09:05.030Z,17.51
2022-11-15T11:10:17.708Z,17.33
2022-11-15T11:11:05.221Z,17.44
2022-11-15T11:12:05.055Z,17.79
2022-11-15T11:13:05.035Z,18.14
2022-11-15T11:14:05.360Z,18.17
2022-11-15T11:15:05.768Z,18.33
2022-11-15T11:16:05.368Z,18.33
2022-11-15T11:17:05.037Z,18.29
2022-11-15T11:18:05.029Z,18.44
2022-11-15T11:19:05.403Z,18.54
2022-11-15T11:20:05.033Z,18.42
2022-11-15T11:21:05.043Z,18.30
2022-11-15T11:22:05.498Z,18.47
2022-11-15T11:23:05.036Z,18.65
2022-11-15T11:24:05.033Z,18.51
2022-11-15T11:25:05.426Z,18.44
2022-11-15T11:26:05.034Z,18.35
2022-11-15T11:27:05.031Z,18.08
2022-11-15T11:28:05.051Z,18.25
2022-11-15T11:29:05.386Z,18.50
2022-11-15T11:30:05.031Z,18.75
2022-11-15T11:31:05.041Z,18.95
2022-11-15T11:32:05.038Z,19.08
2022-11-15T11:33:05.033Z,19.04
2022-11-15T11:34:05.033Z,19.23
2022-11-15T11:35:05.041Z,19.26
2022-11-15T11:36:05.027Z,19.41
2022-11-15T11:37:05.028Z,19.47
2022-11-15T11:38:05.027Z,19.56
2022-11-15T11:39:05.029Z,19.58
2022-11-15T11:40:10.447Z,19.71
2022-11-15T11:41:05.030Z,19.56
2022-11-15T11:42:05.027Z,19.55
2022-11-15T11:43:05.027Z,19.55
2022-11-15T11:44:05.059Z,19.46
2022-11-15T11:45:05.041Z,19.32
2022-11-15T11:46:05.101Z,19.50
2022-11-15T11:47:05.027Z,19.62
2022-11-15T11:48:05.037Z,19.40
2022-11-15T11:49:05.360Z,19.21
2022-11-15T11:50:05.028Z,18.85
2022-11-15T11:51:05.034Z,18.85
2022-11-15T11:52:05.029Z,19.02
2022-11-15T11:53:05.032Z,19.13
2022-11-15T11:54:05.032Z,19.25
2022-11-15T11:55:05.074Z,19.23
2022-11-15T11:56:05.031Z,19.29
2022-11-15T11:57:05.029Z,19.29
2022-11-15T11:58:05.030Z,19.46
2022-11-15T11:59:05.035Z,19.40
2022-11-15T12:00:05.161Z,19.28
2022-11-15T12:01:09.923Z,19.32
2022-11-15T12:02:05.196Z,19.32
2022-11-15T12:03:05.163Z,19.32
2022-11-15T12:04:05.026Z,19.29
2022-11-15T12:05:05.033Z,19.48
2022-11-15T12:06:05.030Z,19.50
2022-11-15T12:07:05.145Z,19.58
2022-11-15T12:08:05.030Z,19.59
2022-11-15T12:09:05.031Z,19.65
2022-11-15T12:10:05.026Z,19.16
2022-11-15T12:11:05.029Z,19.11
2022-11-15T12:12:05.032Z,19.11
2022-11-15T12:13:05.081Z,19.26
2022-11-15T12:14:05.030Z,19.18
2022-11-15T12:15:05.085Z,18.99
2022-11-15T12:16:09.259Z,18.85
2022-11-15T12:17:05.334Z,18.66
2022-11-15T12:18:05.028Z,18.57
2022-11-15T12:19:05.035Z,18.30
2022-11-15T12:20:05.029Z,18.50
2022-11-15T12:21:05.030Z,18.52
2022-11-15T12:22:05.070Z,18.42
2022-11-15T12:23:05.364Z,18.44
2022-11-15T12:24:05.060Z,18.66
2022-11-15T12:25:05.038Z,18.81
2022-11-15T12:26:05.035Z,18.88
2022-11-15T12:27:05.339Z,19.04
2022-11-15T12:28:05.353Z,19.11
2022-11-15T12:29:07.824Z,19.22
2022-11-15T12:30:05.094Z,19.10
2022-11-15T12:31:05.032Z,18.85
2022-11-15T12:32:05.085Z,18.51
2022-11-15T12:33:05.034Z,18.66
2022-11-15T12:34:07.500Z,18.60
2022-11-15T12:35:05.069Z,18.52
2022-11-15T12:36:05.359Z,18.52
2022-11-15T12:37:05.094Z,18.54
2022-11-15T12:38:05.031Z,18.33
2022-11-15T12:39:05.069Z,18.35
2022-11-15T12:40:05.031Z,18.35
2022-11-15T12:41:05.032Z,18.18
2022-11-15T12:42:05.035Z,18.23
2022-11-15T12:43:05.034Z,18.05
2022-11-15T12:44:05.033Z,18.23
2022-11-15T12:45:05.033Z,18.30
2022-11-15T12:46:05.033Z,18.29
2022-11-15T12:47:05.036Z,18.11
2022-11-15T12:48:05.075Z,18.08
2022-11-15T12:49:05.095Z,18.05
2022-11-15T12:50:05.363Z,18.14
2022-11-15T12:51:05.109Z,18.30
2022-11-15T12:52:05.029Z,18.26
2022-11-15T12:53:05.034Z,18.41
2022-11-15T12:54:05.046Z,18.45
2022-11-15T12:55:05.094Z,18.45
2022-11-15T12:56:05.031Z,18.35
2022-11-15T12:57:05.063Z,18.35
2022-11-15T12:58:05.029Z,18.44
2022-11-15T12:59:05.120Z,18.55
2022-11-15T13:00:05.355Z,18.58
2022-11-15T13:01:05.082Z,18.63
2022-11-15T13:02:05.035Z,18.75
2022-11-15T13:03:05.029Z,18.75
2022-11-15T13:04:05.054Z,18.65
2022-11-15T13:05:05.029Z,18.70
2022-11-15T13:06:05.027Z,18.63
2022-11-15T13:07:05.084Z,18.65
2022-11-15T13:08:05.125Z,18.62
2022-11-15T13:09:05.350Z,18.62